Aktuální počasí v Česku a ve světě - METAR

Seznam meteostanic umístěných nejčasteji na letišti v ČR a ve světě

Vyhledat místa podle abecedy:
A B C D E F G H I J K L M N O P Q R S T U V W X Y Z

Filtrovat:

ID stanice:
a/nebo
Název místa (fulltext):
 
Místo (ID)Naposledy načteno 
Faro (LPFR) 21.04.2021 23:00 UTC Zobrazit METAR
LPFR 212300Z 26011KT 9999 SCT010 BKN018 16/16 Q1013
Florence (LIRQ) 21.04.2021 22:50 UTC Zobrazit METAR
LIRQ 212250Z 21006KT CAVOK 13/08 Q1019
Foggia, Gino Lisa (LIBF) 21.04.2021 15:50 UTC Zobrazit METAR
LIBF 211550Z 08012KT 9999 FEW040 15/08 Q1018
Fort de France (TFFF) 21.04.2021 23:00 UTC Zobrazit METAR
TFFF 212300Z AUTO 11010KT CAVOK 26/20 Q1015
Frankfurt/ Main (EDDF) 21.04.2021 22:50 UTC Zobrazit METAR
EDDF 212250Z 02015KT CAVOK 11/05 Q1018 NOSIG
Freetown (GFLL) 31.03.2021 13:00 UTC Zobrazit METAR
GFLL 311300Z 30010KT 8000 HZ FEW014 30/23 Q1009
Funafuti (NGFU) 18.04.2021 16:00 UTC Zobrazit METAR
NGFU 181600Z 07008KT 9999 FEW020 SCT300 28/25 Q1008
Reklama

Reklama


Newslettter

Počasí na Váš email

Emaily jsou bez reklamy a bez spamu



Odhlásit newsletter




Další české internetové stránky (nejen) o počasí najdete v katalogu TOPlist - weby o počasí nebo vyhledejte na internetu, co jste tu na Počasí Slunečno Slunečnu zatím nenašli:
Přidat mezzi oblíbené stránkyPřidat Slunečno.cz do oblíbených | Nastavit jako HOMEPAGENastavit Slunečno.cz jako HOMEPAGE

Posunout stránku nahoru Posunout stránku nahoru Posunout stránku nahoru
Reklama